sensor_id;sensor_type;location;lat;lon;timestamp;temperature;humidity
32787;DHT22;19139;49.372;8.580;2023-01-15T00:02:29;17.10;93.20
32787;DHT22;19139;49.372;8.580;2023-01-15T00:05:01;17.10;93.20
32787;DHT22;19139;49.372;8.580;2023-01-15T00:07:33;17.10;93.20
32787;DHT22;19139;49.372;8.580;2023-01-15T00:10:05;17.10;93.20
32787;DHT22;19139;49.372;8.580;2023-01-15T00:12:37;17.10;93.20
32787;DHT22;19139;49.372;8.580;2023-01-15T00:15:09;17.10;93.20
32787;DHT22;19139;49.372;8.580;2023-01-15T00:17:40;17.10;93.20
32787;DHT22;19139;49.372;8.580;2023-01-15T00:20:07;17.10;93.20
32787;DHT22;19139;49.372;8.580;2023-01-15T00:22:39;17.10;93.20
32787;DHT22;19139;49.372;8.580;2023-01-15T00:25:10;17.10;93.10
32787;DHT22;19139;49.372;8.580;2023-01-15T00:28:01;17.10;93.20
32787;DHT22;19139;49.372;8.580;2023-01-15T00:30:27;17.10;93.10
32787;DHT22;19139;49.372;8.580;2023-01-15T00:32:59;17.10;93.10
32787;DHT22;19139;49.372;8.580;2023-01-15T00:35:25;17.10;93.10
32787;DHT22;19139;49.372;8.580;2023-01-15T00:37:57;17.10;93.10
32787;DHT22;19139;49.372;8.580;2023-01-15T00:40:28;17.10;93.10
32787;DHT22;19139;49.372;8.580;2023-01-15T00:43:00;17.10;93.10
32787;DHT22;19139;49.372;8.580;2023-01-15T00:45:31;17.10;93.10
32787;DHT22;19139;49.372;8.580;2023-01-15T00:48:03;17.10;93.10
32787;DHT22;19139;49.372;8.580;2023-01-15T00:50:34;17.10;93.10
32787;DHT22;19139;49.372;8.580;2023-01-15T00:53:06;17.10;93.10
32787;DHT22;19139;49.372;8.580;2023-01-15T00:55:37;17.10;93.10
32787;DHT22;19139;49.372;8.580;2023-01-15T00:58:08;17.10;93.10
32787;DHT22;19139;49.372;8.580;2023-01-15T01:00:40;17.10;93.10
32787;DHT22;19139;49.372;8.580;2023-01-15T01:03:07;17.10;93.10
32787;DHT22;19139;49.372;8.580;2023-01-15T01:05:38;17.10;93.10
32787;DHT22;19139;49.372;8.580;2023-01-15T01:08:10;17.10;93.10
32787;DHT22;19139;49.372;8.580;2023-01-15T01:10:41;17.10;93.10
32787;DHT22;19139;49.372;8.580;2023-01-15T01:13:13;17.10;93.10
32787;DHT22;19139;49.372;8.580;2023-01-15T01:15:44;17.10;93.10
32787;DHT22;19139;49.372;8.580;2023-01-15T01:18:16;17.10;93.10
32787;DHT22;19139;49.372;8.580;2023-01-15T01:20:47;17.10;93.10
32787;DHT22;19139;49.372;8.580;2023-01-15T01:23:19;17.10;93.40
32787;DHT22;19139;49.372;8.580;2023-01-15T01:25:52;17.10;93.10
32787;DHT22;19139;49.372;8.580;2023-01-15T01:28:24;17.10;93.10
32787;DHT22;19139;49.372;8.580;2023-01-15T01:30:55;17.00;93.00
32787;DHT22;19139;49.372;8.580;2023-01-15T01:33:27;17.10;93.10
32787;DHT22;19139;49.372;8.580;2023-01-15T01:35:58;17.10;93.10
32787;DHT22;19139;49.372;8.580;2023-01-15T01:38:30;17.00;93.10
32787;DHT22;19139;49.372;8.580;2023-01-15T01:41:01;17.00;93.00
32787;DHT22;19139;49.372;8.580;2023-01-15T01:46:27;17.00;93.00
32787;DHT22;19139;49.372;8.580;2023-01-15T01:49:12;17.00;93.00
32787;DHT22;19139;49.372;8.580;2023-01-15T01:51:46;17.00;93.00
32787;DHT22;19139;49.372;8.580;2023-01-15T01:54:16;17.10;93.10
32787;DHT22;19139;49.372;8.580;2023-01-15T01:56:45;17.00;93.00
32787;DHT22;19139;49.372;8.580;2023-01-15T01:59:15;17.00;93.00
32787;DHT22;19139;49.372;8.580;2023-01-15T02:01:42;17.00;93.00
32787;DHT22;19139;49.372;8.580;2023-01-15T02:04:09;17.00;93.00
32787;DHT22;19139;49.372;8.580;2023-01-15T02:06:38;17.00;93.10
32787;DHT22;19139;49.372;8.580;2023-01-15T02:09:05;17.10;93.10
32787;DHT22;19139;49.372;8.580;2023-01-15T02:11:33;17.00;93.00
32787;DHT22;19139;49.372;8.580;2023-01-15T02:14:15;17.00;93.00
32787;DHT22;19139;49.372;8.580;2023-01-15T02:16:54;17.00;93.00
32787;DHT22;19139;49.372;8.580;2023-01-15T02:22:29;17.00;93.00
32787;DHT22;19139;49.372;8.580;2023-01-15T02:25:17;17.00;93.00
32787;DHT22;19139;49.372;8.580;2023-01-15T02:27:55;17.10;93.00
32787;DHT22;19139;49.372;8.580;2023-01-15T02:30:34;17.00;93.00
32787;DHT22;19139;49.372;8.580;2023-01-15T02:33:07;17.00;93.00
32787;DHT22;19139;49.372;8.580;2023-01-15T02:35:49;17.00;93.00
32787;DHT22;19139;49.372;8.580;2023-01-15T02:38:20;17.00;93.00
32787;DHT22;19139;49.372;8.580;2023-01-15T02:40:50;17.00;93.00
32787;DHT22;19139;49.372;8.580;2023-01-15T02:43:20;17.00;93.00
32787;DHT22;19139;49.372;8.580;2023-01-15T02:45:50;17.00;93.00
32787;DHT22;19139;49.372;8.580;2023-01-15T02:48:21;17.00;93.00
32787;DHT22;19139;49.372;8.580;2023-01-15T02:50:54;17.00;93.00
32787;DHT22;19139;49.372;8.580;2023-01-15T02:53:25;17.00;93.00
32787;DHT22;19139;49.372;8.580;2023-01-15T02:55:58;17.00;93.00
32787;DHT22;19139;49.372;8.580;2023-01-15T02:58:29;17.00;93.00
32787;DHT22;19139;49.372;8.580;2023-01-15T03:01:00;17.00;93.00
32787;DHT22;19139;49.372;8.580;2023-01-15T03:03:39;17.00;93.00
32787;DHT22;19139;49.372;8.580;2023-01-15T03:06:38;17.00;93.00
32787;DHT22;19139;49.372;8.580;2023-01-15T03:09:12;17.00;93.00
32787;DHT22;19139;49.372;8.580;2023-01-15T03:11:46;17.00;93.00
32787;DHT22;19139;49.372;8.580;2023-01-15T03:14:37;17.00;93.00
32787;DHT22;19139;49.372;8.580;2023-01-15T03:17:14;17.00;93.00
32787;DHT22;19139;49.372;8.580;2023-01-15T03:20:16;17.00;93.00
32787;DHT22;19139;49.372;8.580;2023-01-15T03:22:50;17.00;93.00
32787;DHT22;19139;49.372;8.580;2023-01-15T03:25:24;17.00;93.00
32787;DHT22;19139;49.372;8.580;2023-01-15T03:27:54;17.00;93.00
32787;DHT22;19139;49.372;8.580;2023-01-15T03:30:23;17.10;93.00
32787;DHT22;19139;49.372;8.580;2023-01-15T03:32:50;17.00;92.90
32787;DHT22;19139;49.372;8.580;2023-01-15T03:38:15;17.10;93.00
32787;DHT22;19139;49.372;8.580;2023-01-15T03:40:52;17.10;93.00
32787;DHT22;19139;49.372;8.580;2023-01-15T03:43:27;17.10;93.00
32787;DHT22;19139;49.372;8.580;2023-01-15T03:52:05;17.00;93.00
32787;DHT22;19139;49.372;8.580;2023-01-15T03:54:44;17.00;93.00
32787;DHT22;19139;49.372;8.580;2023-01-15T03:57:49;17.10;93.00
32787;DHT22;19139;49.372;8.580;2023-01-15T04:00:53;17.10;93.00
32787;DHT22;19139;49.372;8.580;2023-01-15T04:03:19;17.10;93.00
32787;DHT22;19139;49.372;8.580;2023-01-15T04:05:49;17.10;93.00
32787;DHT22;19139;49.372;8.580;2023-01-15T04:08:22;17.00;93.00
32787;DHT22;19139;49.372;8.580;2023-01-15T04:10:56;17.00;93.00
32787;DHT22;19139;49.372;8.580;2023-01-15T04:13:23;17.10;93.00
32787;DHT22;19139;49.372;8.580;2023-01-15T04:15:51;17.10;93.00
32787;DHT22;19139;49.372;8.580;2023-01-15T04:18:18;17.10;93.00
32787;DHT22;19139;49.372;8.580;2023-01-15T04:20:44;17.10;93.00
32787;DHT22;19139;49.372;8.580;2023-01-15T04:23:11;17.00;93.00
32787;DHT22;19139;49.372;8.580;2023-01-15T04:25:38;17.10;93.00
32787;DHT22;19139;49.372;8.580;2023-01-15T04:28:11;17.10;93.00
32787;DHT22;19139;49.372;8.580;2023-01-15T04:30:38;17.10;93.40
32787;DHT22;19139;49.372;8.580;2023-01-15T04:33:10;17.10;93.00
32787;DHT22;19139;49.372;8.580;2023-01-15T04:35:37;17.10;93.00
32787;DHT22;19139;49.372;8.580;2023-01-15T04:38:03;17.00;92.90
32787;DHT22;19139;49.372;8.580;2023-01-15T04:40:30;17.10;93.00
32787;DHT22;19139;49.372;8.580;2023-01-15T04:43:20;17.10;93.00
32787;DHT22;19139;49.372;8.580;2023-01-15T04:46:10;17.10;93.00
32787;DHT22;19139;49.372;8.580;2023-01-15T04:48:38;17.00;92.90
32787;DHT22;19139;49.372;8.580;2023-01-15T04:51:10;17.00;92.90
32787;DHT22;19139;49.372;8.580;2023-01-15T04:53:41;17.10;93.00
32787;DHT22;19139;49.372;8.580;2023-01-15T04:56:08;17.10;93.00
32787;DHT22;19139;49.372;8.580;2023-01-15T04:58:39;17.10;93.00
32787;DHT22;19139;49.372;8.580;2023-01-15T05:01:12;17.10;93.00
32787;DHT22;19139;49.372;8.580;2023-01-15T05:03:40;17.10;93.00
32787;DHT22;19139;49.372;8.580;2023-01-15T05:06:08;17.10;93.00
32787;DHT22;19139;49.372;8.580;2023-01-15T05:08:39;17.10;93.00
32787;DHT22;19139;49.372;8.580;2023-01-15T05:11:11;17.10;93.00
32787;DHT22;19139;49.372;8.580;2023-01-15T05:13:38;17.00;93.00
32787;DHT22;19139;49.372;8.580;2023-01-15T05:16:21;17.10;93.00
32787;DHT22;19139;49.372;8.580;2023-01-15T05:18:57;17.10;93.00
32787;DHT22;19139;49.372;8.580;2023-01-15T05:21:31;17.10;92.90
32787;DHT22;19139;49.372;8.580;2023-01-15T05:24:04;17.10;93.00
32787;DHT22;19139;49.372;8.580;2023-01-15T05:26:36;17.10;93.00
32787;DHT22;19139;49.372;8.580;2023-01-15T05:29:10;17.10;93.00
32787;DHT22;19139;49.372;8.580;2023-01-15T05:31:41;17.00;92.90
32787;DHT22;19139;49.372;8.580;2023-01-15T05:34:15;17.10;93.00
32787;DHT22;19139;49.372;8.580;2023-01-15T05:36:46;17.10;93.00
32787;DHT22;19139;49.372;8.580;2023-01-15T05:39:18;17.10;93.00
32787;DHT22;19139;49.372;8.580;2023-01-15T05:41:49;17.00;92.90
32787;DHT22;19139;49.372;8.580;2023-01-15T05:44:24;17.10;93.00
32787;DHT22;19139;49.372;8.580;2023-01-15T05:47:00;17.10;93.00
32787;DHT22;19139;49.372;8.580;2023-01-15T05:49:33;17.10;92.90
32787;DHT22;19139;49.372;8.580;2023-01-15T05:52:05;17.10;92.90
32787;DHT22;19139;49.372;8.580;2023-01-15T05:54:36;17.10;93.30
32787;DHT22;19139;49.372;8.580;2023-01-15T05:57:10;17.10;92.90
32787;DHT22;19139;49.372;8.580;2023-01-15T05:59:43;17.10;92.90
32787;DHT22;19139;49.372;8.580;2023-01-15T06:02:14;17.10;92.90
32787;DHT22;19139;49.372;8.580;2023-01-15T06:04:46;17.10;92.90
32787;DHT22;19139;49.372;8.580;2023-01-15T06:07:17;17.10;92.90
32787;DHT22;19139;49.372;8.580;2023-01-15T06:09:49;17.10;92.90
32787;DHT22;19139;49.372;8.580;2023-01-15T06:12:20;17.10;92.90
32787;DHT22;19139;49.372;8.580;2023-01-15T06:14:47;17.10;92.90
32787;DHT22;19139;49.372;8.580;2023-01-15T06:17:18;17.10;92.90
32787;DHT22;19139;49.372;8.580;2023-01-15T06:19:50;17.10;92.90
32787;DHT22;19139;49.372;8.580;2023-01-15T06:22:21;17.10;92.90
32787;DHT22;19139;49.372;8.580;2023-01-15T06:24:53;17.10;92.90
32787;DHT22;19139;49.372;8.580;2023-01-15T06:27:24;17.00;92.90
32787;DHT22;19139;49.372;8.580;2023-01-15T06:29:55;17.10;92.90
32787;DHT22;19139;49.372;8.580;2023-01-15T06:32:24;17.10;92.90
32787;DHT22;19139;49.372;8.580;2023-01-15T06:34:56;17.00;92.90
32787;DHT22;19139;49.372;8.580;2023-01-15T06:37:27;17.10;92.90
32787;DHT22;19139;49.372;8.580;2023-01-15T06:39:59;17.10;92.90
32787;DHT22;19139;49.372;8.580;2023-01-15T06:42:30;17.10;92.90
32787;DHT22;19139;49.372;8.580;2023-01-15T06:45:20;17.10;92.90
32787;DHT22;19139;49.372;8.580;2023-01-15T06:48:11;17.10;92.90
32787;DHT22;19139;49.372;8.580;2023-01-15T06:50:42;17.00;92.90
32787;DHT22;19139;49.372;8.580;2023-01-15T06:53:14;17.00;92.90
32787;DHT22;19139;49.372;8.580;2023-01-15T06:55:46;17.00;92.90
32787;DHT22;19139;49.372;8.580;2023-01-15T06:58:17;17.00;92.90
32787;DHT22;19139;49.372;8.580;2023-01-15T07:00:47;17.00;92.90
32787;DHT22;19139;49.372;8.580;2023-01-15T07:03:21;17.00;92.90
32787;DHT22;19139;49.372;8.580;2023-01-15T07:05:53;17.00;92.90
32787;DHT22;19139;49.372;8.580;2023-01-15T07:08:24;17.00;92.90
32787;DHT22;19139;49.372;8.580;2023-01-15T07:11:01;17.00;92.90
32787;DHT22;19139;49.372;8.580;2023-01-15T07:13:33;17.10;92.90
32787;DHT22;19139;49.372;8.580;2023-01-15T07:16:05;17.10;92.90
32787;DHT22;19139;49.372;8.580;2023-01-15T07:18:56;17.00;92.90
32787;DHT22;19139;49.372;8.580;2023-01-15T07:21:28;17.00;92.90
32787;DHT22;19139;49.372;8.580;2023-01-15T07:24:00;17.00;92.90
32787;DHT22;19139;49.372;8.580;2023-01-15T07:26:27;17.10;92.90
32787;DHT22;19139;49.372;8.580;2023-01-15T07:28:59;17.10;92.90
32787;DHT22;19139;49.372;8.580;2023-01-15T07:31:30;17.00;92.90
32787;DHT22;19139;49.372;8.580;2023-01-15T07:34:03;17.10;92.90
32787;DHT22;19139;49.372;8.580;2023-01-15T07:36:34;17.00;92.90
32787;DHT22;19139;49.372;8.580;2023-01-15T07:39:07;17.00;92.90
32787;DHT22;19139;49.372;8.580;2023-01-15T07:41:39;17.00;92.90
32787;DHT22;19139;49.372;8.580;2023-01-15T07:44:29;17.00;93.00
32787;DHT22;19139;49.372;8.580;2023-01-15T07:47:21;17.00;92.90
32787;DHT22;19139;49.372;8.580;2023-01-15T07:50:18;17.00;92.90
32787;DHT22;19139;49.372;8.580;2023-01-15T07:52:50;17.00;92.90
32787;DHT22;19139;49.372;8.580;2023-01-15T07:55:22;17.00;92.90
32787;DHT22;19139;49.372;8.580;2023-01-15T07:57:54;17.00;92.90
32787;DHT22;19139;49.372;8.580;2023-01-15T08:00:26;17.00;92.90
32787;DHT22;19139;49.372;8.580;2023-01-15T08:02:57;17.00;92.90
32787;DHT22;19139;49.372;8.580;2023-01-15T08:05:29;17.00;92.80
32787;DHT22;19139;49.372;8.580;2023-01-15T08:08:00;17.00;92.90
32787;DHT22;19139;49.372;8.580;2023-01-15T08:10:32;17.00;92.90
32787;DHT22;19139;49.372;8.580;2023-01-15T08:13:23;17.00;92.90
32787;DHT22;19139;49.372;8.580;2023-01-15T08:16:13;17.00;92.90
32787;DHT22;19139;49.372;8.580;2023-01-15T08:18:45;17.00;92.80
32787;DHT22;19139;49.372;8.580;2023-01-15T08:21:17;17.00;92.80
32787;DHT22;19139;49.372;8.580;2023-01-15T08:23:49;17.00;92.80
32787;DHT22;19139;49.372;8.580;2023-01-15T08:26:21;17.00;92.80
32787;DHT22;19139;49.372;8.580;2023-01-15T08:28:52;17.00;92.80
32787;DHT22;19139;49.372;8.580;2023-01-15T08:31:24;17.00;92.80
32787;DHT22;19139;49.372;8.580;2023-01-15T08:33:55;17.00;92.80
32787;DHT22;19139;49.372;8.580;2023-01-15T08:36:22;17.00;92.80
32787;DHT22;19139;49.372;8.580;2023-01-15T08:38:53;17.00;92.80
32787;DHT22;19139;49.372;8.580;2023-01-15T08:41:25;17.00;92.80
32787;DHT22;19139;49.372;8.580;2023-01-15T08:43:56;17.00;92.80
32787;DHT22;19139;49.372;8.580;2023-01-15T08:46:23;17.00;92.80
32787;DHT22;19139;49.372;8.580;2023-01-15T08:48:49;17.00;92.70
32787;DHT22;19139;49.372;8.580;2023-01-15T08:51:16;17.00;92.70
32787;DHT22;19139;49.372;8.580;2023-01-15T08:53:43;17.00;92.70
32787;DHT22;19139;49.372;8.580;2023-01-15T08:56:17;17.00;92.70
32787;DHT22;19139;49.372;8.580;2023-01-15T08:58:44;17.00;92.70
32787;DHT22;19139;49.372;8.580;2023-01-15T09:01:11;17.00;92.70
32787;DHT22;19139;49.372;8.580;2023-01-15T09:03:42;17.00;92.70
32787;DHT22;19139;49.372;8.580;2023-01-15T09:06:09;17.00;92.70
32787;DHT22;19139;49.372;8.580;2023-01-15T09:08:36;17.00;92.70
32787;DHT22;19139;49.372;8.580;2023-01-15T09:11:05;17.00;92.70
32787;DHT22;19139;49.372;8.580;2023-01-15T09:13:32;17.00;92.70
32787;DHT22;19139;49.372;8.580;2023-01-15T09:16:00;17.00;92.70
32787;DHT22;19139;49.372;8.580;2023-01-15T09:18:28;17.00;92.70
32787;DHT22;19139;49.372;8.580;2023-01-15T09:20:55;17.00;92.70
32787;DHT22;19139;49.372;8.580;2023-01-15T09:23:22;17.00;92.70
32787;DHT22;19139;49.372;8.580;2023-01-15T09:26:06;17.00;92.70
32787;DHT22;19139;49.372;8.580;2023-01-15T09:28:34;17.00;92.60
32787;DHT22;19139;49.372;8.580;2023-01-15T09:31:05;17.00;92.60
32787;DHT22;19139;49.372;8.580;2023-01-15T09:33:37;17.00;92.70
32787;DHT22;19139;49.372;8.580;2023-01-15T09:36:04;17.00;92.60
32787;DHT22;19139;49.372;8.580;2023-01-15T09:38:35;17.00;92.60
32787;DHT22;19139;49.372;8.580;2023-01-15T09:41:10;17.00;92.60
32787;DHT22;19139;49.372;8.580;2023-01-15T09:52:18;17.00;92.60
32787;DHT22;19139;49.372;8.580;2023-01-15T09:57:24;17.00;92.60
32787;DHT22;19139;49.372;8.580;2023-01-15T09:59:55;17.00;92.60
32787;DHT22;19139;49.372;8.580;2023-01-15T10:02:42;16.90;92.60
32787;DHT22;19139;49.372;8.580;2023-01-15T10:05:23;17.00;92.60
32787;DHT22;19139;49.372;8.580;2023-01-15T10:08:04;17.00;92.60
32787;DHT22;19139;49.372;8.580;2023-01-15T10:10:47;16.90;92.50
32787;DHT22;19139;49.372;8.580;2023-01-15T10:13:36;17.00;92.60
32787;DHT22;19139;49.372;8.580;2023-01-15T10:16:05;16.90;92.50
32787;DHT22;19139;49.372;8.580;2023-01-15T10:18:36;17.00;92.60
32787;DHT22;19139;49.372;8.580;2023-01-15T10:26:54;16.90;92.80
32787;DHT22;19139;49.372;8.580;2023-01-15T10:29:45;16.90;92.50
32787;DHT22;19139;49.372;8.580;2023-01-15T10:32:37;16.90;92.40
32787;DHT22;19139;49.372;8.580;2023-01-15T10:35:52;16.50;90.50
32787;DHT22;19139;49.372;8.580;2023-01-15T10:38:43;16.00;90.20
32787;DHT22;19139;49.372;8.580;2023-01-15T10:41:28;15.70;90.20
32787;DHT22;19139;49.372;8.580;2023-01-15T10:46:59;15.30;90.10
32787;DHT22;19139;49.372;8.580;2023-01-15T10:49:28;15.20;90.30
32787;DHT22;19139;49.372;8.580;2023-01-15T10:52:01;15.10;90.10
32787;DHT22;19139;49.372;8.580;2023-01-15T10:54:38;15.00;90.10
32787;DHT22;19139;49.372;8.580;2023-01-15T10:57:10;15.20;90.40
32787;DHT22;19139;49.372;8.580;2023-01-15T10:59:48;15.40;90.50
32787;DHT22;19139;49.372;8.580;2023-01-15T11:02:22;15.60;90.70
32787;DHT22;19139;49.372;8.580;2023-01-15T11:04:55;15.70;90.80
32787;DHT22;19139;49.372;8.580;2023-01-15T11:07:38;15.80;90.90
32787;DHT22;19139;49.372;8.580;2023-01-15T11:10:25;16.00;91.00
32787;DHT22;19139;49.372;8.580;2023-01-15T11:15:59;16.10;91.20
32787;DHT22;19139;49.372;8.580;2023-01-15T11:18:45;16.20;91.40
32787;DHT22;19139;49.372;8.580;2023-01-15T11:21:31;16.30;91.50
32787;DHT22;19139;49.372;8.580;2023-01-15T11:23:58;16.30;91.50
32787;DHT22;19139;49.372;8.580;2023-01-15T11:26:31;16.40;92.50
32787;DHT22;19139;49.372;8.580;2023-01-15T11:29:13;16.40;93.00
32787;DHT22;19139;49.372;8.580;2023-01-15T11:31:41;16.50;93.00
32787;DHT22;19139;49.372;8.580;2023-01-15T11:34:20;16.50;93.00
32787;DHT22;19139;49.372;8.580;2023-01-15T11:37:02;16.50;92.90
32787;DHT22;19139;49.372;8.580;2023-01-15T11:39:30;16.60;92.90
32787;DHT22;19139;49.372;8.580;2023-01-15T11:42:05;16.60;92.90
32787;DHT22;19139;49.372;8.580;2023-01-15T11:45:01;16.60;92.90
32787;DHT22;19139;49.372;8.580;2023-01-15T11:47:53;16.60;92.90
32787;DHT22;19139;49.372;8.580;2023-01-15T11:50:59;16.60;92.90
32787;DHT22;19139;49.372;8.580;2023-01-15T11:53:33;16.60;92.90
32787;DHT22;19139;49.372;8.580;2023-01-15T11:56:03;16.60;92.90
32787;DHT22;19139;49.372;8.580;2023-01-15T11:58:44;16.70;92.90
32787;DHT22;19139;49.372;8.580;2023-01-15T12:01:19;16.70;92.80
32787;DHT22;19139;49.372;8.580;2023-01-15T12:03:46;16.70;92.70
32787;DHT22;19139;49.372;8.580;2023-01-15T12:06:13;16.70;92.60
32787;DHT22;19139;49.372;8.580;2023-01-15T12:08:50;16.70;92.50
32787;DHT22;19139;49.372;8.580;2023-01-15T12:17:11;16.70;92.40
32787;DHT22;19139;49.372;8.580;2023-01-15T12:20:15;16.70;92.40
32787;DHT22;19139;49.372;8.580;2023-01-15T12:23:19;16.70;92.30
32787;DHT22;19139;49.372;8.580;2023-01-15T12:26:07;16.70;92.30
32787;DHT22;19139;49.372;8.580;2023-01-15T12:31:58;16.70;92.30
32787;DHT22;19139;49.372;8.580;2023-01-15T12:34:53;16.70;92.20
32787;DHT22;19139;49.372;8.580;2023-01-15T12:37:41;16.70;92.20
32787;DHT22;19139;49.372;8.580;2023-01-15T12:40:28;16.70;92.10
32787;DHT22;19139;49.372;8.580;2023-01-15T12:43:02;16.80;92.20
32787;DHT22;19139;49.372;8.580;2023-01-15T12:45:53;16.80;92.30
32787;DHT22;19139;49.372;8.580;2023-01-15T12:51:14;16.80;92.50
32787;DHT22;19139;49.372;8.580;2023-01-15T12:54:00;16.80;92.50
32787;DHT22;19139;49.372;8.580;2023-01-15T12:59:13;16.80;92.60
32787;DHT22;19139;49.372;8.580;2023-01-15T13:04:53;16.90;92.60
32787;DHT22;19139;49.372;8.580;2023-01-15T13:07:39;16.90;92.80
32787;DHT22;19139;49.372;8.580;2023-01-15T13:10:24;16.90;92.80
32787;DHT22;19139;49.372;8.580;2023-01-15T13:13:01;17.00;92.90
32787;DHT22;19139;49.372;8.580;2023-01-15T13:15:44;17.00;92.90
32787;DHT22;19139;49.372;8.580;2023-01-15T13:18:27;17.00;92.90
32787;DHT22;19139;49.372;8.580;2023-01-15T13:21:12;17.00;93.00
32787;DHT22;19139;49.372;8.580;2023-01-15T13:24:09;17.00;92.90
32787;DHT22;19139;49.372;8.580;2023-01-15T13:32:23;17.10;93.10
32787;DHT22;19139;49.372;8.580;2023-01-15T13:35:05;17.00;93.00
32787;DHT22;19139;49.372;8.580;2023-01-15T13:37:47;17.00;93.10
32787;DHT22;19139;49.372;8.580;2023-01-15T13:40:27;17.10;93.20
32787;DHT22;19139;49.372;8.580;2023-01-15T13:43:00;17.10;93.20
32787;DHT22;19139;49.372;8.580;2023-01-15T13:45:42;17.10;93.10
32787;DHT22;19139;49.372;8.580;2023-01-15T13:48:34;17.10;93.20
32787;DHT22;19139;49.372;8.580;2023-01-15T13:54:00;17.10;93.20
32787;DHT22;19139;49.372;8.580;2023-01-15T13:56:33;17.10;93.20
32787;DHT22;19139;49.372;8.580;2023-01-15T14:01:59;17.10;91.90
32787;DHT22;19139;49.372;8.580;2023-01-15T14:04:38;16.70;89.20
32787;DHT22;19139;49.372;8.580;2023-01-15T14:07:20;16.40;87.00
32787;DHT22;19139;49.372;8.580;2023-01-15T14:10:22;16.10;87.70
32787;DHT22;19139;49.372;8.580;2023-01-15T14:16:08;16.40;90.30
32787;DHT22;19139;49.372;8.580;2023-01-15T14:19:04;16.50;90.50
32787;DHT22;19139;49.372;8.580;2023-01-15T14:21:40;16.60;90.50
32787;DHT22;19139;49.372;8.580;2023-01-15T14:24:23;16.70;90.60
32787;DHT22;19139;49.372;8.580;2023-01-15T14:35:56;16.90;90.60
32787;DHT22;19139;49.372;8.580;2023-01-15T14:38:28;16.90;90.60
32787;DHT22;19139;49.372;8.580;2023-01-15T14:41:03;16.90;90.60
32787;DHT22;19139;49.372;8.580;2023-01-15T14:43:38;16.90;90.60
32787;DHT22;19139;49.372;8.580;2023-01-15T14:46:20;16.90;90.70
32787;DHT22;19139;49.372;8.580;2023-01-15T14:48:49;16.90;90.70
32787;DHT22;19139;49.372;8.580;2023-01-15T14:51:25;16.90;90.70
32787;DHT22;19139;49.372;8.580;2023-01-15T14:56:39;16.90;90.80
32787;DHT22;19139;49.372;8.580;2023-01-15T14:59:28;16.90;90.80
32787;DHT22;19139;49.372;8.580;2023-01-15T15:02:17;16.90;90.80
32787;DHT22;19139;49.372;8.580;2023-01-15T15:04:52;16.90;90.80
32787;DHT22;19139;49.372;8.580;2023-01-15T15:07:27;16.90;90.80
32787;DHT22;19139;49.372;8.580;2023-01-15T15:10:20;16.90;91.20
32787;DHT22;19139;49.372;8.580;2023-01-15T15:16:19;16.90;90.90
32787;DHT22;19139;49.372;8.580;2023-01-15T15:19:10;16.90;90.90
32787;DHT22;19139;49.372;8.580;2023-01-15T15:21:44;16.90;90.90
32787;DHT22;19139;49.372;8.580;2023-01-15T15:24:35;16.90;91.00
32787;DHT22;19139;49.372;8.580;2023-01-15T15:27:21;16.90;91.00
32787;DHT22;19139;49.372;8.580;2023-01-15T15:30:03;16.90;91.00
32787;DHT22;19139;49.372;8.580;2023-01-15T15:32:35;16.90;91.00
32787;DHT22;19139;49.372;8.580;2023-01-15T15:35:24;16.90;91.00
32787;DHT22;19139;49.372;8.580;2023-01-15T15:38:00;16.90;91.00
32787;DHT22;19139;49.372;8.580;2023-01-15T15:40:35;16.90;91.10
32787;DHT22;19139;49.372;8.580;2023-01-15T15:43:17;16.90;91.10
32787;DHT22;19139;49.372;8.580;2023-01-15T15:46:24;16.90;91.10
32787;DHT22;19139;49.372;8.580;2023-01-15T15:49:15;16.80;91.10
32787;DHT22;19139;49.372;8.580;2023-01-15T15:51:52;16.90;91.10
32787;DHT22;19139;49.372;8.580;2023-01-15T15:57:07;16.80;91.10
32787;DHT22;19139;49.372;8.580;2023-01-15T15:59:47;16.90;91.30
32787;DHT22;19139;49.372;8.580;2023-01-15T16:02:36;16.90;91.10
32787;DHT22;19139;49.372;8.580;2023-01-15T16:05:26;16.90;91.10
32787;DHT22;19139;49.372;8.580;2023-01-15T16:08:16;16.90;91.10
32787;DHT22;19139;49.372;8.580;2023-01-15T16:10:50;16.80;91.10
32787;DHT22;19139;49.372;8.580;2023-01-15T16:13:43;16.80;91.10
32787;DHT22;19139;49.372;8.580;2023-01-15T16:16:17;16.80;91.10
32787;DHT22;19139;49.372;8.580;2023-01-15T16:18:51;16.80;91.10
32787;DHT22;19139;49.372;8.580;2023-01-15T16:21:36;16.80;91.10
32787;DHT22;19139;49.372;8.580;2023-01-15T16:24:27;16.80;91.10
32787;DHT22;19139;49.372;8.580;2023-01-15T16:27:06;16.80;91.10
32787;DHT22;19139;49.372;8.580;2023-01-15T16:29:36;16.80;91.10
32787;DHT22;19139;49.372;8.580;2023-01-15T16:32:12;16.80;91.10
32787;DHT22;19139;49.372;8.580;2023-01-15T16:34:44;16.80;91.10
32787;DHT22;19139;49.372;8.580;2023-01-15T16:37:26;16.80;91.10
32787;DHT22;19139;49.372;8.580;2023-01-15T16:39:58;16.80;91.10
32787;DHT22;19139;49.372;8.580;2023-01-15T16:42:31;16.80;91.10
32787;DHT22;19139;49.372;8.580;2023-01-15T16:45:03;16.80;91.10
32787;DHT22;19139;49.372;8.580;2023-01-15T16:47:33;16.80;91.10
32787;DHT22;19139;49.372;8.580;2023-01-15T16:50:28;16.80;91.10
32787;DHT22;19139;49.372;8.580;2023-01-15T16:52:56;16.80;91.10
32787;DHT22;19139;49.372;8.580;2023-01-15T16:55:38;16.80;91.20
32787;DHT22;19139;49.372;8.580;2023-01-15T17:00:40;16.80;91.20
32787;DHT22;19139;49.372;8.580;2023-01-15T17:03:24;16.80;91.20
32787;DHT22;19139;49.372;8.580;2023-01-15T17:05:56;16.80;91.10
32787;DHT22;19139;49.372;8.580;2023-01-15T17:08:33;16.70;91.10
32787;DHT22;19139;49.372;8.580;2023-01-15T17:11:50;16.70;91.10
32787;DHT22;19139;49.372;8.580;2023-01-15T17:14:10;16.70;91.10
32787;DHT22;19139;49.372;8.580;2023-01-15T17:16:44;16.70;91.10
32787;DHT22;19139;49.372;8.580;2023-01-15T17:19:11;16.70;91.10
32787;DHT22;19139;49.372;8.580;2023-01-15T17:21:38;16.70;91.10
32787;DHT22;19139;49.372;8.580;2023-01-15T17:24:06;16.70;91.10
32787;DHT22;19139;49.372;8.580;2023-01-15T17:26:34;16.70;91.10
32787;DHT22;19139;49.372;8.580;2023-01-15T17:29:00;16.70;91.10
32787;DHT22;19139;49.372;8.580;2023-01-15T17:31:29;16.70;91.10
32787;DHT22;19139;49.372;8.580;2023-01-15T17:33:58;16.70;91.10
32787;DHT22;19139;49.372;8.580;2023-01-15T17:36:25;16.70;91.10
32787;DHT22;19139;49.372;8.580;2023-01-15T17:38:54;16.70;91.10
32787;DHT22;19139;49.372;8.580;2023-01-15T17:41:22;16.70;91.00
32787;DHT22;19139;49.372;8.580;2023-01-15T17:43:53;16.70;91.00
32787;DHT22;19139;49.372;8.580;2023-01-15T17:46:20;16.70;91.00
32787;DHT22;19139;49.372;8.580;2023-01-15T17:48:47;16.70;91.00
32787;DHT22;19139;49.372;8.580;2023-01-15T17:51:14;16.70;91.00
32787;DHT22;19139;49.372;8.580;2023-01-15T17:53:41;16.70;91.00